TimeAKST,TemperatureF,Dew PointF,Humidity,Sea Level PressureIn,VisibilityMPH,Wind Direction,Wind SpeedMPH,Gust SpeedMPH,PrecipitationIn,Events,Conditions,WindDirDegrees,DateUTC
12:23 AM,-27.4,-32.8,75,29.86,10.0,Calm,Calm,-,N/A,,Partly Cloudy,0,2013-02-12 09:23:00
12:53 AM,-27.9,-31.0,85,29.87,10.0,Calm,Calm,-,N/A,,Partly Cloudy,0,2013-02-12 09:53:00
1:53 AM,-29.0,-32.1,85,29.88,10.0,SSE,3.5,-,N/A,,Clear,160,2013-02-12 10:53:00
3:53 AM,-25.1,-26.0,96,29.88,10.0,East,3.5,-,N/A,,Clear,80,2013-02-12 12:53:00
4:53 AM,-25.1,-29.0,82,29.88,10.0,Calm,Calm,-,N/A,,Clear,0,2013-02-12 13:53:00
5:53 AM,-27.9,-31.0,85,29.88,10.0,NE,3.5,-,N/A,,Clear,40,2013-02-12 14:53:00
6:53 AM,-29.0,-32.1,85,29.89,10.0,NE,3.5,-,N/A,,Clear,40,2013-02-12 15:53:00
7:53 AM,-27.9,-29.9,90,29.89,10.0,ENE,5.8,-,N/A,,Clear,70,2013-02-12 16:53:00
8:53 AM,-27.0,-29.9,86,29.89,9.0,ENE,5.8,-,N/A,,Overcast,60,2013-02-12 17:53:00
9:53 AM,-26.0,-29.9,81,29.90,5.0,NE,4.6,-,N/A,,Overcast,50,2013-02-12 18:53:00
10:53 AM,-26.0,-29.9,81,29.90,10.0,NE,5.8,-,N/A,,Clear,50,2013-02-12 19:53:00
11:53 AM,-27.9,-34.1,73,29.91,4.0,NE,3.5,-,N/A,,Haze,40,2013-02-12 20:53:00
12:53 PM,-27.9,-31.0,85,29.92,8.0,NE,5.8,-,N/A,,Scattered Clouds,50,2013-02-12 21:53:00
1:53 PM,-24.0,-27.9,82,29.93,7.0,NE,4.6,-,N/A,,Overcast,40,2013-02-12 22:53:00
2:53 PM,-24.0,-29.0,77,29.93,7.0,NNE,4.6,-,N/A,,Mostly Cloudy,30,2013-02-12 23:53:00
3:53 PM,-24.0,-27.9,82,29.93,10.0,NE,6.9,-,N/A,,Mostly Cloudy,50,2013-02-13 00:53:00
4:53 PM,-23.1,-27.9,78,29.94,9.0,East,5.8,-,N/A,,Overcast,80,2013-02-13 01:53:00
5:53 PM,-20.0,-25.1,78,29.94,10.0,ENE,5.8,-,N/A,,Overcast,70,2013-02-13 02:53:00
6:53 PM,-18.9,-23.1,81,29.94,10.0,ENE,8.1,-,N/A,,Overcast,60,2013-02-13 03:53:00
7:53 PM,-22.0,-26.0,82,29.95,10.0,ENE,6.9,-,N/A,,Scattered Clouds,70,2013-02-13 04:53:00
8:53 PM,-18.9,-23.1,81,29.96,10.0,ENE,5.8,-,N/A,,Overcast,70,2013-02-13 05:53:00
9:53 PM,-17.0,-20.9,82,29.96,10.0,ENE,9.2,-,N/A,,Overcast,60,2013-02-13 06:53:00
10:53 PM,-15.0,-18.9,82,29.96,10.0,ENE,9.2,-,N/A,,Overcast,70,2013-02-13 07:53:00
11:53 PM,-14.1,-18.0,82,29.96,10.0,ENE,9.2,-,N/A,,Overcast,70,2013-02-13 08:53:00